Time;durP1;ratioP1;P1;durP2;ratioP2;P2;SDS_P1;SDS_P2;PMS_P1;PMS_P2;Temp;Humidity;BMP_temperature;BMP_pressure;BME280_temperature;BME280_humidity;BME280_pressure;Samples;Min_cycle;Max_cycle;Signal;HPM_P1;HPM_P2
2021/09/19 00:00:26;;;;;;;0.30;0.30;;;14.20;99.90;;;;;;5085672;28;20284;-80
2021/09/19 00:02:51;;;;;;;0.30;0.30;;;14.10;99.90;;;;;;5086678;28;20177;-80
2021/09/19 00:05:17;;;;;;;0.10;0.10;;;14.10;99.90;;;;;;5085144;28;20181;-80
2021/09/19 00:07:43;;;;;;;0.20;0.20;;;14.10;99.90;;;;;;5093204;28;20215;-79
2021/09/19 00:10:11;;;;;;;0.20;0.20;;;14.10;99.90;;;;;;5085007;28;20220;-80
2021/09/19 00:12:40;;;;;;;0.10;0.10;;;14.10;99.90;;;;;;5090978;28;20264;-80
2021/09/19 00:15:08;;;;;;;0.30;0.30;;;14.10;99.90;;;;;;5080394;28;20314;-80
2021/09/19 00:17:34;;;;;;;0.20;0.20;;;14.00;99.90;;;;;;5088488;28;20172;-80
2021/09/19 00:19:59;;;;;;;0.10;0.10;;;14.10;99.90;;;;;;5080811;28;20177;-79
2021/09/19 00:22:25;;;;;;;0.50;0.20;;;14.00;99.90;;;;;;5082719;28;20181;-80
2021/09/19 00:24:51;;;;;;;0.53;0.27;;;14.00;99.90;;;;;;5087731;28;20178;-80
2021/09/19 00:27:17;;;;;;;0.40;0.40;;;14.00;99.90;;;;;;5092433;28;20200;-80
2021/09/19 00:29:43;;;;;;;0.10;0.10;;;14.00;99.90;;;;;;5092197;28;20293;-80
2021/09/19 00:32:09;;;;;;;0.20;0.20;;;14.10;99.90;;;;;;5090239;28;20200;-80
2021/09/19 00:34:34;;;;;;;0.10;0.10;;;14.10;99.90;;;;;;5092324;28;20182;-80
2021/09/19 00:37:00;;;;;;;0.20;0.20;;;14.10;99.90;;;;;;5096192;28;20169;-80
2021/09/19 00:39:25;;;;;;;0.10;0.10;;;14.00;99.90;;;;;;5087125;28;20176;-80
2021/09/19 00:41:51;;;;;;;0.10;0.10;;;14.00;99.90;;;;;;5084756;28;20259;-80
2021/09/19 00:44:24;;;;;;;0.10;0.10;;;14.00;99.90;;;;;;5096119;28;20188;-80
2021/09/19 00:46:50;;;;;;;0.20;0.20;;;14.00;99.90;;;;;;5088753;28;20182;-79
2021/09/19 00:49:16;;;;;;;0.20;0.20;;;14.00;99.90;;;;;;5091296;28;20215;-80
2021/09/19 00:51:43;;;;;;;0.20;0.20;;;13.90;99.90;;;;;;5087585;28;20682;-80
2021/09/19 00:54:10;;;;;;;0.10;0.10;;;14.00;99.90;;;;;;5092379;28;20177;-81
2021/09/19 00:56:38;;;;;;;0.27;0.27;;;14.00;99.90;;;;;;5093728;28;20177;-80
2021/09/19 00:59:04;;;;;;;0.20;0.20;;;13.90;99.90;;;;;;5081921;28;20181;-79
2021/09/19 01:01:30;;;;;;;0.10;0.10;;;13.90;99.90;;;;;;5083536;28;20251;-80
2021/09/19 01:03:57;;;;;;;0.17;0.17;;;13.90;99.90;;;;;;5088341;28;20587;-80
2021/09/19 01:06:23;;;;;;;0.20;0.20;;;13.90;99.90;;;;;;5086571;28;20587;-81
2021/09/19 01:08:49;;;;;;;0.27;0.27;;;13.90;99.90;;;;;;5095284;28;20294;-81
2021/09/19 01:11:17;;;;;;;0.13;0.13;;;13.80;99.90;;;;;;5097969;28;20200;-80
2021/09/19 01:13:44;;;;;;;0.10;0.10;;;13.80;99.90;;;;;;5091081;28;20181;-80
2021/09/19 01:16:11;;;;;;;0.17;0.10;;;13.80;99.90;;;;;;5104800;28;20187;-80
2021/09/19 01:18:39;;;;;;;0.37;0.37;;;13.80;99.90;;;;;;5097169;28;20279;-80
2021/09/19 01:21:06;;;;;;;0.37;0.17;;;13.70;99.90;;;;;;5095049;28;20227;-80
2021/09/19 01:23:32;;;;;;;0.30;0.30;;;13.70;99.90;;;;;;5090262;28;20184;-80
2021/09/19 01:25:58;;;;;;;0.27;0.27;;;13.70;99.90;;;;;;5093419;28;20205;-80
2021/09/19 01:28:24;;;;;;;0.40;0.40;;;13.70;99.90;;;;;;5093858;28;20350;-80
2021/09/19 01:30:52;;;;;;;2.03;0.83;;;13.60;99.90;;;;;;5100664;28;20208;-81
2021/09/19 01:33:18;;;;;;;0.20;0.20;;;13.60;99.90;;;;;;5091486;28;20222;-80
2021/09/19 01:35:43;;;;;;;0.30;0.30;;;13.60;99.90;;;;;;5091498;28;20185;-80
2021/09/19 01:38:09;;;;;;;0.13;0.13;;;13.60;99.90;;;;;;5096963;28;20176;-80
2021/09/19 01:40:35;;;;;;;0.30;0.30;;;13.60;99.90;;;;;;5101099;28;20262;-80
2021/09/19 01:43:01;;;;;;;0.20;0.20;;;13.60;99.90;;;;;;5086572;28;20240;-80
2021/09/19 01:45:28;;;;;;;0.20;0.20;;;13.50;99.90;;;;;;5095274;28;20184;-80
2021/09/19 01:47:54;;;;;;;0.10;0.10;;;13.60;99.90;;;;;;5093034;28;20198;-81
2021/09/19 01:50:21;;;;;;;0.10;0.10;;;13.60;99.90;;;;;;5095828;28;20204;-81
2021/09/19 01:52:47;;;;;;;0.10;0.10;;;13.50;99.90;;;;;;5100903;28;20178;-80
2021/09/19 01:55:13;;;;;;;3.30;0.87;;;13.50;99.90;;;;;;5095288;28;20639;-80
2021/09/19 01:57:39;;;;;;;0.40;0.40;;;13.50;99.90;;;;;;5097068;28;20194;-80
2021/09/19 02:00:07;;;;;;;0.10;0.10;;;13.50;99.90;;;;;;5092073;28;20196;-80
2021/09/19 02:02:34;;;;;;;0.10;0.10;;;13.50;99.90;;;;;;5092124;28;20199;-80
2021/09/19 02:05:00;;;;;;;0.10;0.10;;;13.50;99.90;;;;;;5079816;28;20188;-79
2021/09/19 02:07:25;;;;;;;0.10;0.10;;;13.40;99.90;;;;;;5087060;28;20256;-80
2021/09/19 02:09:51;;;;;;;0.20;0.20;;;13.40;99.90;;;;;;5094917;28;20236;-80
2021/09/19 02:12:16;;;;;;;0.10;0.10;;;13.50;99.90;;;;;;5095466;28;20173;-81
2021/09/19 02:14:44;;;;;;;0.83;0.20;;;13.50;99.90;;;;;;5095276;28;20177;-80
2021/09/19 02:17:13;;;;;;;0.20;0.20;;;13.50;99.90;;;;;;5099416;28;20176;-80
2021/09/19 02:19:40;;;;;;;0.23;0.20;;;13.40;99.90;;;;;;5087519;28;20177;-80
2021/09/19 02:22:09;;;;;;;0.20;0.20;;;13.40;99.90;;;;;;5101129;28;20213;-80
2021/09/19 02:24:35;;;;;;;0.10;0.10;;;13.40;99.90;;;;;;5089527;28;20181;-80
2021/09/19 02:27:01;;;;;;;0.10;0.10;;;13.40;99.90;;;;;;5089087;28;20196;-80
2021/09/19 02:29:26;;;;;;;0.20;0.20;;;13.40;99.90;;;;;;5103488;28;20292;-80
2021/09/19 02:31:52;;;;;;;0.23;0.23;;;13.40;99.90;;;;;;5083970;28;20228;-80
2021/09/19 02:34:17;;;;;;;0.33;0.33;;;13.40;99.90;;;;;;5084813;28;20634;-80
2021/09/19 02:36:43;;;;;;;0.13;0.13;;;13.40;99.90;;;;;;5084810;28;20185;-80
2021/09/19 02:39:09;;;;;;;0.20;0.20;;;13.30;99.90;;;;;;5087642;28;20641;-79
2021/09/19 02:41:36;;;;;;;0.10;0.10;;;13.30;99.90;;;;;;5077585;28;20208;-80
2021/09/19 02:44:02;;;;;;;0.23;0.10;;;13.30;99.90;;;;;;5087331;28;20689;-80
2021/09/19 02:46:28;;;;;;;0.10;0.10;;;13.30;99.90;;;;;;5080478;28;20185;-80
2021/09/19 02:48:53;;;;;;;0.20;0.20;;;13.30;99.90;;;;;;5087456;28;20211;-80
2021/09/19 02:51:19;;;;;;;0.20;0.20;;;13.30;99.90;;;;;;5088854;28;20201;-80
2021/09/19 02:53:45;;;;;;;0.20;0.20;;;13.30;99.90;;;;;;5082821;28;20212;-80
2021/09/19 02:56:11;;;;;;;0.10;0.10;;;13.30;99.90;;;;;;5089439;28;20237;-80
2021/09/19 02:58:37;;;;;;;0.20;0.20;;;13.30;99.90;;;;;;5083209;28;20192;-79
2021/09/19 03:01:03;;;;;;;0.10;0.10;;;13.20;99.90;;;;;;5084632;28;20234;-80
2021/09/19 03:03:29;;;;;;;0.67;0.60;;;13.20;99.90;;;;;;5083778;28;20641;-79
2021/09/19 03:05:54;;;;;;;0.10;0.10;;;13.20;99.90;;;;;;5081335;28;20183;-80
2021/09/19 03:08:20;;;;;;;0.10;0.10;;;13.20;99.90;;;;;;5084058;28;20245;-80
2021/09/19 03:10:46;;;;;;;0.20;0.20;;;13.20;99.90;;;;;;5083825;28;20212;-80
2021/09/19 03:13:12;;;;;;;0.20;0.20;;;13.20;99.90;;;;;;5084978;28;20174;-81
2021/09/19 03:15:37;;;;;;;0.53;0.53;;;13.20;99.90;;;;;;5092461;28;20184;-80
2021/09/19 03:18:04;;;;;;;2.57;1.43;;;13.20;99.90;;;;;;5080828;28;20165;-80
2021/09/19 03:20:30;;;;;;;0.20;0.20;;;13.20;99.90;;;;;;5084915;28;20202;-80
2021/09/19 03:22:56;;;;;;;0.20;0.20;;;13.20;99.90;;;;;;5092052;28;20253;-80
2021/09/19 03:25:22;;;;;;;0.20;0.10;;;13.10;99.90;;;;;;5083367;28;20201;-80
2021/09/19 03:27:48;;;;;;;0.20;0.20;;;13.10;99.90;;;;;;5088173;28;20186;-80
2021/09/19 03:30:14;;;;;;;0.40;0.20;;;13.10;99.90;;;;;;5086798;28;20291;-80
2021/09/19 03:32:41;;;;;;;0.30;0.30;;;13.10;99.90;;;;;;5083828;28;20221;-80
2021/09/19 03:35:09;;;;;;;0.13;0.13;;;13.10;99.90;;;;;;5086102;28;20230;-80
2021/09/19 03:37:35;;;;;;;0.47;0.47;;;13.10;99.90;;;;;;5083200;28;20175;-80
2021/09/19 03:40:00;;;;;;;0.33;0.30;;;13.20;99.90;;;;;;5083725;28;20664;-80
2021/09/19 03:42:26;;;;;;;0.13;0.13;;;13.10;99.90;;;;;;5083293;28;20175;-80
2021/09/19 03:44:52;;;;;;;0.47;0.47;;;13.10;99.90;;;;;;5086388;28;20324;-80
2021/09/19 03:47:18;;;;;;;0.30;0.23;;;13.10;99.90;;;;;;5093052;28;20185;-80
2021/09/19 03:49:44;;;;;;;0.20;0.20;;;13.10;99.90;;;;;;5083179;28;20342;-80
2021/09/19 03:52:10;;;;;;;0.20;0.20;;;13.10;99.90;;;;;;5081284;28;20230;-81
2021/09/19 03:54:36;;;;;;;0.17;0.10;;;13.00;99.90;;;;;;5085087;28;20697;-80
2021/09/19 03:57:02;;;;;;;0.20;0.20;;;13.10;99.90;;;;;;5088275;28;20212;-79
2021/09/19 03:59:27;;;;;;;0.17;0.17;;;13.10;99.90;;;;;;5083661;28;20188;-80
2021/09/19 04:01:53;;;;;;;0.53;0.40;;;13.10;99.90;;;;;;5091954;28;20200;-80
2021/09/19 04:04:19;;;;;;;0.10;0.10;;;13.10;99.90;;;;;;5089761;28;20275;-80
2021/09/19 04:06:44;;;;;;;0.10;0.10;;;13.00;99.90;;;;;;5083664;28;20180;-80
2021/09/19 04:09:10;;;;;;;0.20;0.20;;;13.00;99.90;;;;;;5088520;28;20734;-80
2021/09/19 04:11:36;;;;;;;0.23;0.10;;;13.00;99.90;;;;;;5086380;28;20267;-80
2021/09/19 04:14:02;;;;;;;0.20;0.20;;;13.10;99.90;;;;;;5087417;28;20184;-80
2021/09/19 04:16:27;;;;;;;1.23;1.23;;;13.00;99.90;;;;;;5087035;28;20241;-79
2021/09/19 04:18:53;;;;;;;0.10;0.10;;;13.00;99.90;;;;;;5086744;28;20541;-80
2021/09/19 04:21:18;;;;;;;0.10;0.10;;;13.00;99.90;;;;;;5093056;28;20211;-80
2021/09/19 04:23:44;;;;;;;0.10;0.10;;;13.00;99.90;;;;;;5087818;28;20230;-81
2021/09/19 04:26:09;;;;;;;0.10;0.10;;;13.00;99.90;;;;;;5107006;28;20205;-81
2021/09/19 04:28:35;;;;;;;0.30;0.30;;;13.00;99.90;;;;;;5086370;28;20308;-81
2021/09/19 04:31:01;;;;;;;0.30;0.30;;;13.00;99.90;;;;;;5066723;28;20209;-80
2021/09/19 04:33:26;;;;;;;1.23;0.50;;;12.90;99.90;;;;;;5079301;28;20181;-80
2021/09/19 04:35:52;;;;;;;0.23;0.10;;;12.90;99.90;;;;;;5092226;28;20630;-80
2021/09/19 04:38:17;;;;;;;0.13;0.13;;;12.90;99.90;;;;;;5084000;28;20207;-80
2021/09/19 04:40:43;;;;;;;0.10;0.10;;;12.90;99.90;;;;;;5088377;28;20210;-80
2021/09/19 04:43:11;;;;;;;0.23;0.23;;;12.90;99.90;;;;;;5083000;28;20508;-80
2021/09/19 04:45:38;;;;;;;0.20;0.20;;;12.90;99.90;;;;;;5084197;28;20183;-80
2021/09/19 04:48:04;;;;;;;0.40;0.40;;;12.80;99.90;;;;;;5084080;28;20204;-80
2021/09/19 04:50:30;;;;;;;0.47;0.20;;;12.80;99.90;;;;;;5088010;28;20192;-80
2021/09/19 04:52:56;;;;;;;0.10;0.10;;;12.80;99.90;;;;;;5083661;28;20179;-81
2021/09/19 04:55:21;;;;;;;0.30;0.30;;;12.80;99.90;;;;;;5084994;28;20648;-80
2021/09/19 04:57:47;;;;;;;0.23;0.23;;;12.80;99.90;;;;;;5085457;28;20236;-79
2021/09/19 05:00:13;;;;;;;1.63;0.20;;;12.80;99.90;;;;;;5084831;28;20697;-80
2021/09/19 05:02:39;;;;;;;0.10;0.10;;;12.80;99.90;;;;;;5085640;28;20181;-80
2021/09/19 05:05:05;;;;;;;0.10;0.10;;;12.80;99.90;;;;;;5071567;28;20176;-80
2021/09/19 05:07:30;;;;;;;0.17;0.10;;;12.70;99.90;;;;;;5077364;28;20181;-80
2021/09/19 05:09:56;;;;;;;0.00;0.00;;;12.70;99.90;;;;;;5084620;28;20689;-80
2021/09/19 05:12:22;;;;;;;0.30;0.30;;;12.70;99.90;;;;;;5088366;28;20258;-81
2021/09/19 05:14:49;;;;;;;0.10;0.10;;;12.70;99.90;;;;;;5080844;28;20184;-81
2021/09/19 05:17:18;;;;;;;0.17;0.17;;;12.60;99.90;;;;;;5093902;28;20335;-81
2021/09/19 05:19:44;;;;;;;0.30;0.30;;;12.60;99.90;;;;;;5076820;28;20181;-82
2021/09/19 05:22:10;;;;;;;0.20;0.20;;;12.70;99.90;;;;;;5083632;28;20290;-81
2021/09/19 05:24:35;;;;;;;0.20;0.20;;;12.70;99.90;;;;;;5080226;28;20242;-82
2021/09/19 05:27:01;;;;;;;0.13;0.13;;;12.70;99.90;;;;;;5077539;28;20241;-80
2021/09/19 05:29:26;;;;;;;0.20;0.20;;;12.70;99.90;;;;;;5083264;28;20208;-80
2021/09/19 05:31:52;;;;;;;0.23;0.17;;;12.80;99.90;;;;;;5078834;28;20226;-79
2021/09/19 05:34:18;;;;;;;0.60;0.60;;;12.80;99.90;;;;;;5090764;28;20199;-79
2021/09/19 05:36:43;;;;;;;0.30;0.23;;;12.80;99.90;;;;;;5094815;28;20220;-79
2021/09/19 05:39:09;;;;;;;0.17;0.17;;;12.80;99.90;;;;;;5075216;28;20644;-80
2021/09/19 05:41:34;;;;;;;0.30;0.30;;;12.80;99.90;;;;;;5083903;28;20201;-80
2021/09/19 05:44:01;;;;;;;0.50;0.40;;;12.90;99.90;;;;;;5080728;28;20208;-80
2021/09/19 05:46:26;;;;;;;0.40;0.40;;;13.00;99.90;;;;;;5076994;28;20205;-80
2021/09/19 05:48:52;;;;;;;0.27;0.27;;;13.00;99.90;;;;;;5075232;28;20205;-81
2021/09/19 05:51:21;;;;;;;0.40;0.40;;;13.20;99.90;;;;;;5078708;28;20227;-82
2021/09/19 05:53:47;;;;;;;0.20;0.20;;;13.20;99.90;;;;;;5084714;28;20174;-81
2021/09/19 05:56:12;;;;;;;0.10;0.10;;;13.30;99.90;;;;;;5061936;28;20560;-82
2021/09/19 05:58:38;;;;;;;0.40;0.40;;;13.40;99.90;;;;;;5082370;28;20189;-82
2021/09/19 06:01:03;;;;;;;0.60;0.20;;;13.50;99.90;;;;;;5069765;28;20213;-81
2021/09/19 06:03:29;;;;;;;0.40;0.40;;;13.60;99.90;;;;;;5084295;28;20188;-82
2021/09/19 06:05:55;;;;;;;0.20;0.20;;;13.70;99.90;;;;;;5078273;28;20208;-82
2021/09/19 06:08:21;;;;;;;0.20;0.20;;;13.80;99.90;;;;;;5091577;28;20204;-81
2021/09/19 06:10:47;;;;;;;0.40;0.37;;;13.80;99.90;;;;;;5075601;28;20211;-80
2021/09/19 06:13:12;;;;;;;0.83;0.40;;;13.90;99.90;;;;;;5076692;28;20169;-80
2021/09/19 06:15:38;;;;;;;0.23;0.20;;;14.00;99.90;;;;;;5080441;28;20183;-81
2021/09/19 06:18:03;;;;;;;0.20;0.20;;;14.10;99.90;;;;;;5079969;28;20172;-82
2021/09/19 06:20:29;;;;;;;0.63;0.30;;;14.20;99.90;;;;;;5081769;28;20287;-82
2021/09/19 06:22:55;;;;;;;0.10;0.10;;;14.30;99.90;;;;;;5074642;28;20183;-82
2021/09/19 06:25:20;;;;;;;0.20;0.20;;;14.30;99.90;;;;;;5071702;28;20181;-82
2021/09/19 06:27:46;;;;;;;0.23;0.23;;;14.50;99.90;;;;;;5086558;28;20196;-82
2021/09/19 06:30:12;;;;;;;0.50;0.50;;;14.50;99.90;;;;;;5087444;28;20252;-82
2021/09/19 06:32:38;;;;;;;0.40;0.20;;;14.60;99.90;;;;;;5085375;28;20268;-82
2021/09/19 06:35:04;;;;;;;0.30;0.30;;;14.60;99.90;;;;;;5073026;28;20801;-82
2021/09/19 06:37:30;;;;;;;0.50;0.50;;;14.70;99.90;;;;;;5068531;28;20189;-82
2021/09/19 06:39:56;;;;;;;0.37;0.27;;;14.70;99.90;;;;;;5084123;28;20665;-82
2021/09/19 06:42:22;;;;;;;0.30;0.30;;;14.80;99.90;;;;;;5075335;28;20178;-82
2021/09/19 06:44:49;;;;;;;0.20;0.20;;;15.00;99.90;;;;;;5071433;28;20191;-82
2021/09/19 06:47:15;;;;;;;0.20;0.20;;;15.30;99.90;;;;;;5085911;28;20547;-82
2021/09/19 06:49:41;;;;;;;0.40;0.30;;;15.50;99.90;;;;;;5074552;28;20211;-82
2021/09/19 06:52:07;;;;;;;0.30;0.30;;;15.60;99.90;;;;;;5093270;28;20616;-82
2021/09/19 06:54:32;;;;;;;0.40;0.40;;;15.50;99.90;;;;;;5076697;28;20183;-82
2021/09/19 06:56:58;;;;;;;0.43;0.43;;;15.40;99.90;;;;;;5082037;28;20192;-82
2021/09/19 06:59:24;;;;;;;0.20;0.20;;;15.60;99.90;;;;;;5082120;28;20235;-82
2021/09/19 07:01:49;;;;;;;0.20;0.20;;;15.50;99.90;;;;;;5074541;28;20208;-82
2021/09/19 07:04:15;;;;;;;0.30;0.30;;;15.70;99.90;;;;;;5085335;28;20225;-82
2021/09/19 07:06:42;;;;;;;0.33;0.33;;;15.50;99.90;;;;;;5080726;28;20181;-82
2021/09/19 07:09:08;;;;;;;0.43;0.40;;;15.80;99.90;;;;;;5071059;28;20205;-82
2021/09/19 07:11:33;;;;;;;0.20;0.20;;;15.70;99.90;;;;;;5074764;28;20876;-81
2021/09/19 07:13:59;;;;;;;0.50;0.30;;;15.80;99.90;;;;;;5075485;28;20255;-81
2021/09/19 07:16:25;;;;;;;0.50;0.50;;;15.50;99.90;;;;;;5065255;28;20183;-80
2021/09/19 07:18:50;;;;;;;0.30;0.30;;;15.80;99.90;;;;;;5087400;28;20195;-81
2021/09/19 07:21:16;;;;;;;0.10;0.10;;;15.80;99.90;;;;;;5086313;28;20242;-81
2021/09/19 07:23:42;;;;;;;0.50;0.50;;;15.50;99.90;;;;;;5076668;28;20646;-80
2021/09/19 07:26:08;;;;;;;0.40;0.40;;;15.40;99.90;;;;;;5081100;28;20181;-81
2021/09/19 07:28:34;;;;;;;0.47;0.40;;;15.60;99.90;;;;;;5079759;28;20202;-81
2021/09/19 07:30:59;;;;;;;0.37;0.37;;;15.50;99.90;;;;;;5075756;28;20845;-80
2021/09/19 07:33:26;;;;;;;0.63;0.33;;;15.50;99.90;;;;;;5054297;28;20180;-82
2021/09/19 07:35:52;;;;;;;0.30;0.30;;;15.80;99.90;;;;;;5080134;28;20196;-83
2021/09/19 07:38:18;;;;;;;0.30;0.30;;;15.80;99.90;;;;;;5070824;28;20187;-80
2021/09/19 07:40:45;;;;;;;0.10;0.10;;;15.70;99.90;;;;;;5058946;28;20696;-81
2021/09/19 07:43:11;;;;;;;0.10;0.10;;;16.00;99.90;;;;;;5084923;28;20322;-82
2021/09/19 07:45:36;;;;;;;0.30;0.30;;;16.10;99.90;;;;;;5064824;28;20175;-82
2021/09/19 07:48:09;;;;;;;0.27;0.27;;;16.00;99.90;;;;;;5086558;28;20636;-82
2021/09/19 07:50:35;;;;;;;0.33;0.33;;;15.90;99.90;;;;;;5081629;28;20251;-82
2021/09/19 07:53:01;;;;;;;0.23;0.23;;;15.90;99.90;;;;;;5082543;28;20265;-83
2021/09/19 07:55:28;;;;;;;0.40;0.40;;;16.10;99.90;;;;;;5059237;28;21413;-83
2021/09/19 07:57:54;;;;;;;0.20;0.20;;;16.40;99.90;;;;;;5052381;28;20185;-83
2021/09/19 08:00:20;;;;;;;0.20;0.20;;;16.60;99.90;;;;;;5054131;28;20208;-82
2021/09/19 08:02:45;;;;;;;0.20;0.20;;;16.70;99.90;;;;;;5064550;28;20204;-83
2021/09/19 08:05:11;;;;;;;1.13;0.50;;;17.30;99.90;;;;;;5063005;28;20190;-82
2021/09/19 08:07:36;;;;;;;0.57;0.30;;;16.60;99.90;;;;;;5079448;28;20241;-83
2021/09/19 08:10:03;;;;;;;0.20;0.20;;;16.30;99.90;;;;;;5089150;28;20818;-82
2021/09/19 08:12:29;;;;;;;0.27;0.27;;;16.30;99.90;;;;;;5077251;28;20638;-82
2021/09/19 08:14:54;;;;;;;0.20;0.20;;;16.50;99.90;;;;;;5078847;28;20176;-83
2021/09/19 08:17:20;;;;;;;0.50;0.50;;;16.30;99.90;;;;;;5078736;28;20252;-83
2021/09/19 08:19:45;;;;;;;0.40;0.40;;;16.50;99.90;;;;;;5081168;28;20186;-82
2021/09/19 08:22:11;;;;;;;1.23;0.50;;;16.80;99.90;;;;;;5079779;28;20237;-82
2021/09/19 08:24:36;;;;;;;0.50;0.50;;;16.50;99.90;;;;;;5075033;28;20751;-82
2021/09/19 08:27:04;;;;;;;0.50;0.50;;;16.60;99.90;;;;;;5077438;28;20204;-83
2021/09/19 08:29:30;;;;;;;0.80;0.30;;;17.20;99.90;;;;;;5070514;28;20201;-82
2021/09/19 08:31:57;;;;;;;1.03;0.30;;;17.10;99.90;;;;;;5075716;28;20567;-82
2021/09/19 08:34:23;;;;;;;0.33;0.33;;;17.20;99.90;;;;;;5062752;28;20179;-82
2021/09/19 08:36:48;;;;;;;0.40;0.40;;;17.10;99.90;;;;;;5071484;28;20708;-83
2021/09/19 08:39:14;;;;;;;0.40;0.40;;;17.90;99.90;;;;;;5073733;28;20219;-81
2021/09/19 08:41:40;;;;;;;0.37;0.27;;;18.20;99.90;;;;;;5060415;28;20268;-80
2021/09/19 08:44:06;;;;;;;0.30;0.30;;;17.20;99.90;;;;;;5060809;28;20195;-81
2021/09/19 08:46:32;;;;;;;0.30;0.30;;;17.60;99.90;;;;;;5084196;28;20189;-81
2021/09/19 08:48:58;;;;;;;0.50;0.50;;;17.70;99.90;;;;;;5092608;28;20230;-81
2021/09/19 08:51:23;;;;;;;0.50;0.50;;;17.50;99.90;;;;;;5092881;28;20204;-81
2021/09/19 08:53:49;;;;;;;0.50;0.50;;;17.00;99.90;;;;;;5080446;28;21529;-81
2021/09/19 08:56:26;;;;;;;0.30;0.30;;;16.50;99.90;;;;;;5097982;28;20183;-81
2021/09/19 08:58:52;;;;;;;0.27;0.27;;;16.80;99.90;;;;;;5091539;28;20545;-81
2021/09/19 09:01:18;;;;;;;0.37;0.37;;;16.90;99.90;;;;;;5088173;28;20200;-81
2021/09/19 09:03:44;;;;;;;0.60;0.50;;;17.20;99.90;;;;;;5087361;28;20209;-81
2021/09/19 09:06:10;;;;;;;0.50;0.50;;;17.40;99.90;;;;;;5096478;28;20853;-81
2021/09/19 09:08:35;;;;;;;1.03;0.40;;;17.60;99.90;;;;;;5078121;28;20213;-81
2021/09/19 09:11:05;;;;;;;0.20;0.20;;;17.60;99.90;;;;;;5091760;28;20204;-81
2021/09/19 09:13:38;;;;;;;0.30;0.30;;;17.70;99.90;;;;;;5080983;28;20181;-80
2021/09/19 09:16:09;;;;;;;0.37;0.37;;;17.70;99.90;;;;;;5082750;28;20184;-82
2021/09/19 09:19:02;;;;;;;0.33;0.33;;;17.70;99.90;;;;;;5099099;28;20192;-81
2021/09/19 09:21:30;;;;;;;0.30;0.30;;;18.00;99.90;;;;;;5073171;28;20282;-81
2021/09/19 09:24:00;;;;;;;1.13;0.87;;;17.70;99.90;;;;;;5081262;28;20180;-81
2021/09/19 09:26:32;;;;;;;0.40;0.40;;;17.90;99.90;;;;;;5087621;28;20557;-81
2021/09/19 09:29:15;;;;;;;0.30;0.30;;;17.90;99.90;;;;;;5070717;28;20208;-80
2021/09/19 09:31:50;;;;;;;0.37;0.37;;;18.00;99.90;;;;;;5087361;28;20633;-81
2021/09/19 09:34:24;;;;;;;1.03;0.60;;;18.10;99.90;;;;;;5091166;28;20188;-81
2021/09/19 09:37:01;;;;;;;0.50;0.50;;;18.60;99.90;;;;;;5073248;28;20188;-81
2021/09/19 09:39:33;;;;;;;0.40;0.40;;;19.00;99.90;;;;;;5070228;28;20196;-81
2021/09/19 09:42:17;;;;;;;0.30;0.30;;;18.70;99.90;;;;;;5066172;28;20201;-81
2021/09/19 09:44:43;;;;;;;0.43;0.43;;;18.70;99.90;;;;;;5086863;28;20200;-80
2021/09/19 09:47:14;;;;;;;0.40;0.40;;;18.50;99.90;;;;;;5083580;28;20176;-81
2021/09/19 09:49:44;;;;;;;0.63;0.43;;;18.30;99.90;;;;;;5075569;28;20212;-81
2021/09/19 09:52:24;;;;;;;0.63;0.40;;;17.80;99.90;;;;;;5084794;28;20329;-81
2021/09/19 09:54:55;;;;;;;0.40;0.40;;;17.70;99.90;;;;;;5078660;28;20215;-81
2021/09/19 09:58:00;;;;;;;0.30;0.30;;;17.70;99.90;;;;;;5081391;28;20173;-81
2021/09/19 10:00:26;;;;;;;0.70;0.70;;;17.70;99.90;;;;;;5045457;28;20212;-80
2021/09/19 10:02:52;;;;;;;0.40;0.37;;;18.00;99.90;;;;;;5064960;28;20203;-81
2021/09/19 10:05:22;;;;;;;0.80;0.80;;;17.90;99.90;;;;;;5083648;28;20731;-81
2021/09/19 10:07:49;;;;;;;0.40;0.40;;;18.10;99.90;;;;;;5075854;28;20237;-81
2021/09/19 10:10:17;;;;;;;0.57;0.50;;;18.30;99.90;;;;;;5082633;28;20212;-81
2021/09/19 10:12:43;;;;;;;0.30;0.30;;;18.40;99.90;;;;;;5079664;28;20207;-81
2021/09/19 10:15:10;;;;;;;0.63;0.50;;;19.20;99.90;;;;;;5086309;28;20172;-81
2021/09/19 10:17:36;;;;;;;1.73;0.80;;;18.50;99.90;;;;;;5088204;28;20585;-81
2021/09/19 10:20:14;;;;;;;0.50;0.50;;;18.50;99.90;;;;;;5091259;28;20212;-81
2021/09/19 10:23:03;;;;;;;1.00;0.60;;;18.50;99.90;;;;;;5078439;28;20212;-81
2021/09/19 10:25:36;;;;;;;0.40;0.40;;;18.20;99.90;;;;;;5073290;28;20186;-81
2021/09/19 10:28:38;;;;;;;0.20;0.20;;;18.80;99.90;;;;;;5066843;28;20197;-81
2021/09/19 10:31:15;;;;;;;0.20;0.20;;;18.50;99.90;;;;;;5043182;28;20582;-81
2021/09/19 10:33:42;;;;;;;0.53;0.53;;;18.50;99.90;;;;;;5077718;28;20300;-81
2021/09/19 10:36:20;;;;;;;0.50;0.50;;;18.90;99.90;;;;;;5074516;28;20696;-81
2021/09/19 10:38:46;;;;;;;2.93;0.53;;;18.50;99.90;;;;;;5075813;28;20180;-81
2021/09/19 10:41:17;;;;;;;0.53;0.40;;;18.60;99.90;;;;;;5081393;28;20215;-81
2021/09/19 10:43:48;;;;;;;0.40;0.20;;;18.90;99.90;;;;;;5082573;28;20212;-80
2021/09/19 10:46:34;;;;;;;0.83;0.43;;;19.50;99.90;;;;;;5081683;28;20177;-81
2021/09/19 10:49:17;;;;;;;0.50;0.43;;;19.50;99.90;;;;;;5094034;28;20208;-81
2021/09/19 10:52:01;;;;;;;0.20;0.20;;;19.60;99.90;;;;;;5082848;28;20202;-81
2021/09/19 10:54:42;;;;;;;0.40;0.40;;;20.00;99.90;;;;;;5075434;28;20182;-81
2021/09/19 10:57:22;;;;;;;0.60;0.60;;;20.40;99.90;;;;;;5093793;28;20176;-81
2021/09/19 11:00:18;;;;;;;0.43;0.40;;;19.50;99.90;;;;;;5077197;28;20181;-81
2021/09/19 11:03:03;;;;;;;0.30;0.30;;;19.00;99.90;;;;;;5075429;28;20185;-81
2021/09/19 11:05:50;;;;;;;0.40;0.40;;;18.80;99.90;;;;;;5085759;28;20196;-81
2021/09/19 11:08:19;;;;;;;0.40;0.40;;;19.20;99.90;;;;;;5083468;28;20192;-82
2021/09/19 11:10:44;;;;;;;0.37;0.37;;;19.40;99.90;;;;;;5091537;28;20719;-81
2021/09/19 11:13:36;;;;;;;0.23;0.23;;;19.30;99.90;;;;;;5073384;28;20186;-81
2021/09/19 11:16:01;;;;;;;0.63;0.47;;;19.10;99.90;;;;;;5086201;28;20711;-82
2021/09/19 11:18:27;;;;;;;0.93;0.20;;;18.80;99.90;;;;;;5083507;28;20185;-85
2021/09/19 11:21:17;;;;;;;0.37;0.37;;;18.90;99.90;;;;;;5069295;28;20210;-81
2021/09/19 11:23:47;;;;;;;0.70;0.70;;;18.70;99.90;;;;;;5088751;28;20649;-81
2021/09/19 11:26:24;;;;;;;0.23;0.23;;;18.80;99.90;;;;;;5081728;28;20187;-81
2021/09/19 11:28:53;;;;;;;0.80;0.47;;;19.10;99.90;;;;;;5083612;28;20215;-81
2021/09/19 11:31:19;;;;;;;0.20;0.20;;;19.00;99.90;;;;;;5079805;28;20250;-81
2021/09/19 11:33:45;;;;;;;0.77;0.50;;;19.10;99.90;;;;;;5081581;28;20620;-81
2021/09/19 11:36:14;;;;;;;0.50;0.50;;;18.90;99.90;;;;;;5085640;28;20181;-81
2021/09/19 11:38:43;;;;;;;0.80;0.53;;;18.80;99.90;;;;;;5065486;28;20270;-81
2021/09/19 11:41:09;;;;;;;0.40;0.40;;;18.80;99.90;;;;;;5077588;28;20211;-82
2021/09/19 11:43:36;;;;;;;0.47;0.20;;;18.90;99.90;;;;;;5077839;28;20188;-80
2021/09/19 11:46:06;;;;;;;0.40;0.40;;;19.10;99.90;;;;;;5074370;28;20205;-81
2021/09/19 11:48:32;;;;;;;0.93;0.80;;;19.30;99.90;;;;;;5082865;28;20299;-80
2021/09/19 11:50:58;;;;;;;0.57;0.57;;;19.20;99.90;;;;;;5086624;28;20342;-81
2021/09/19 11:53:24;;;;;;;0.43;0.43;;;19.20;99.90;;;;;;5071360;28;20189;-80
2021/09/19 11:55:50;;;;;;;1.33;0.50;;;19.20;99.90;;;;;;5082482;28;20660;-81
2021/09/19 11:58:17;;;;;;;0.50;0.40;;;19.20;99.90;;;;;;5073801;28;20188;-80
2021/09/19 12:01:03;;;;;;;0.20;0.20;;;19.10;99.90;;;;;;5074788;28;20208;-80
2021/09/19 12:03:29;;;;;;;0.40;0.40;;;19.10;99.90;;;;;;5071980;28;20212;-80
2021/09/19 12:05:58;;;;;;;0.30;0.30;;;19.30;99.90;;;;;;5083559;28;20207;-81
2021/09/19 12:08:27;;;;;;;0.53;0.40;;;19.40;99.90;;;;;;5068861;28;20179;-81
2021/09/19 12:10:54;;;;;;;0.50;0.50;;;20.00;99.90;;;;;;5074380;28;20254;-80
2021/09/19 12:13:25;;;;;;;0.40;0.30;;;20.20;99.90;;;;;;5077344;28;20600;-81
2021/09/19 12:16:06;;;;;;;0.53;0.43;;;19.80;99.90;;;;;;5088202;28;20178;-81
2021/09/19 12:18:41;;;;;;;0.17;0.17;;;19.80;99.90;;;;;;5088184;28;20613;-81
2021/09/19 12:21:11;;;;;;;0.50;0.50;;;20.10;99.90;;;;;;5078129;28;20703;-81
2021/09/19 12:23:49;;;;;;;0.40;0.40;;;19.90;99.90;;;;;;5086856;28;20187;-81
2021/09/19 12:26:21;;;;;;;0.57;0.57;;;20.10;99.90;;;;;;5073495;28;20176;-81
2021/09/19 12:28:50;;;;;;;0.73;0.57;;;19.80;99.90;;;;;;5088543;28;20196;-81
2021/09/19 12:31:37;;;;;;;0.30;0.30;;;19.20;99.90;;;;;;5080649;28;20252;-81
2021/09/19 12:34:05;;;;;;;0.40;0.20;;;19.40;99.90;;;;;;5073603;28;20546;-81
2021/09/19 12:36:42;;;;;;;0.83;0.83;;;19.90;99.90;;;;;;5088028;28;20173;-81
2021/09/19 12:39:23;;;;;;;0.13;0.13;;;19.50;99.90;;;;;;5068132;28;20178;-81
2021/09/19 12:41:51;;;;;;;0.47;0.40;;;19.90;99.90;;;;;;5085782;28;20231;-80
2021/09/19 12:44:19;;;;;;;0.50;0.50;;;19.70;99.90;;;;;;5091119;28;20179;-81
2021/09/19 12:46:47;;;;;;;0.27;0.27;;;19.50;99.90;;;;;;5086074;28;20256;-81
2021/09/19 12:49:23;;;;;;;0.20;0.20;;;19.80;99.90;;;;;;5090777;28;20193;-80
2021/09/19 12:52:10;;;;;;;0.43;0.43;;;19.40;99.90;;;;;;5086265;28;20204;-81